Licenciado Adolfo Lopez Mateos International Airport
MMTO : rendu visible

Aérodrome :











RETROUVEZ-NOUS SUR...

 
LOGIN :

S'inscrire | Disclaimer

   EN    FR    IT 

 









Légende :    VFR   VFR Marginal   IFR   IFR Intensif   IFR Très Intensif
Visi : 
Plafond : 
>= 8 km
>= 3000ft
5 à 8 km
1000 à 3000 ft
1500m à 5 km
500 à 1000 ft
800 à 1500m
200 à 500 ft
< 800m
< 200 ft
Symboles :   Orages  Brouillard  Fortes neiges  Fortes précipitations  Vent > 20 kt






- Altitude de l'aérodrome : 8466 ft
- Code IATA : TLC


MMTO - Licenciado Adolfo Lopez Mateos International

DERNIER METAR :
  • 200250Z 15007KT 6SM SKC 14/04 A3040 RMK SLP/// 5//// 9// HZY

METARs EXPIRÉS :
  • 200147Z 18003KT 6SM SKC 17/04 A3037 RMK HZY

TAF TAF MMTO
Valide du 20 à 00h jusqu'au 21 à 06h UTC


192253Z 2000/2106 15012KT 6SM HZ SKC TX28/2021Z TN03/2012Z
BECMG 2004/2005 00000KT
TEMPO 2010/2014 3SM BR HZ
FM201400 34005KT P6SM SKC
BECMG 2021/2022 34010KT BKN250
FM210400 34005KT P6SM BKN250



MET'MAP, la Météo Aéronautique d'un coup d'oeil ! - Copyright ORBIFLY Décembre 2007 - Disclaimer

ORBIFLY MET'MAP TEAM :

Programmation & Développement : Alexandra Zaïnal
Sur une idée originale de : Baudouin d'Aumeries
Assistance à la programmation : Marc-Olivier Méhu
Soutien technique & logistique : Manuel Goepfert

Contact : metmap@orbifly.com




SOURCES & CREDITS :

   NOAA       Earth
Advisory